sensor_id;sensor_type;location;lat;lon;timestamp;temperature;humidity
27667;DHT22;15074;50.940;5.282;2023-08-17T00:01:40;20.70;99.90
27667;DHT22;15074;50.940;5.282;2023-08-17T00:04:07;20.60;99.90
27667;DHT22;15074;50.940;5.282;2023-08-17T00:06:32;20.50;99.90
27667;DHT22;15074;50.940;5.282;2023-08-17T00:08:58;20.50;99.90
27667;DHT22;15074;50.940;5.282;2023-08-17T00:11:24;20.50;99.90
27667;DHT22;15074;50.940;5.282;2023-08-17T00:13:49;20.40;99.90
27667;DHT22;15074;50.940;5.282;2023-08-17T00:16:15;20.30;99.90
27667;DHT22;15074;50.940;5.282;2023-08-17T00:18:41;20.40;99.90
27667;DHT22;15074;50.940;5.282;2023-08-17T00:21:07;20.50;99.90
27667;DHT22;15074;50.940;5.282;2023-08-17T00:23:32;20.50;99.90
27667;DHT22;15074;50.940;5.282;2023-08-17T00:25:58;20.40;99.90
27667;DHT22;15074;50.940;5.282;2023-08-17T00:28:24;20.30;99.90
27667;DHT22;15074;50.940;5.282;2023-08-17T00:30:50;20.40;99.90
27667;DHT22;15074;50.940;5.282;2023-08-17T00:33:16;20.40;99.90
27667;DHT22;15074;50.940;5.282;2023-08-17T00:35:42;20.30;99.90
27667;DHT22;15074;50.940;5.282;2023-08-17T00:38:08;20.30;99.90
27667;DHT22;15074;50.940;5.282;2023-08-17T00:40:34;20.20;99.90
27667;DHT22;15074;50.940;5.282;2023-08-17T00:43:00;20.40;99.90
27667;DHT22;15074;50.940;5.282;2023-08-17T00:45:26;20.40;99.90
27667;DHT22;15074;50.940;5.282;2023-08-17T00:47:56;20.40;99.90
27667;DHT22;15074;50.940;5.282;2023-08-17T00:50:23;20.30;99.90
27667;DHT22;15074;50.940;5.282;2023-08-17T00:52:49;20.20;99.90
27667;DHT22;15074;50.940;5.282;2023-08-17T00:55:16;20.30;99.90
27667;DHT22;15074;50.940;5.282;2023-08-17T00:57:42;20.20;99.90
27667;DHT22;15074;50.940;5.282;2023-08-17T01:00:10;20.20;99.90
27667;DHT22;15074;50.940;5.282;2023-08-17T01:02:37;20.30;99.90
27667;DHT22;15074;50.940;5.282;2023-08-17T01:05:03;20.30;99.90
27667;DHT22;15074;50.940;5.282;2023-08-17T01:07:31;20.40;99.90
27667;DHT22;15074;50.940;5.282;2023-08-17T01:09:57;20.30;99.90
27667;DHT22;15074;50.940;5.282;2023-08-17T01:12:37;20.30;99.90
27667;DHT22;15074;50.940;5.282;2023-08-17T01:15:24;20.20;99.90
27667;DHT22;15074;50.940;5.282;2023-08-17T01:18:22;20.10;99.90
27667;DHT22;15074;50.940;5.282;2023-08-17T01:20:49;20.00;99.90
27667;DHT22;15074;50.940;5.282;2023-08-17T01:23:15;20.00;99.90
27667;DHT22;15074;50.940;5.282;2023-08-17T01:25:41;20.00;99.90
27667;DHT22;15074;50.940;5.282;2023-08-17T01:28:07;20.00;99.90
27667;DHT22;15074;50.940;5.282;2023-08-17T01:30:49;19.90;99.90
27667;DHT22;15074;50.940;5.282;2023-08-17T01:33:29;20.00;99.90
27667;DHT22;15074;50.940;5.282;2023-08-17T01:36:20;20.00;99.90
27667;DHT22;15074;50.940;5.282;2023-08-17T01:38:51;20.00;99.90
27667;DHT22;15074;50.940;5.282;2023-08-17T01:41:17;20.00;99.90
27667;DHT22;15074;50.940;5.282;2023-08-17T01:43:43;20.00;99.90
27667;DHT22;15074;50.940;5.282;2023-08-17T01:46:17;20.10;99.90
27667;DHT22;15074;50.940;5.282;2023-08-17T01:48:43;20.00;99.90
27667;DHT22;15074;50.940;5.282;2023-08-17T01:51:10;20.10;99.90
27667;DHT22;15074;50.940;5.282;2023-08-17T01:53:37;20.00;99.90
27667;DHT22;15074;50.940;5.282;2023-08-17T01:56:02;19.90;99.90
27667;DHT22;15074;50.940;5.282;2023-08-17T01:58:28;19.90;99.90
27667;DHT22;15074;50.940;5.282;2023-08-17T02:00:54;19.90;99.90
27667;DHT22;15074;50.940;5.282;2023-08-17T02:03:19;19.90;99.90
27667;DHT22;15074;50.940;5.282;2023-08-17T02:05:46;19.90;99.90
27667;DHT22;15074;50.940;5.282;2023-08-17T02:08:11;20.00;99.90
27667;DHT22;15074;50.940;5.282;2023-08-17T02:10:37;20.00;99.90
27667;DHT22;15074;50.940;5.282;2023-08-17T02:13:03;20.00;99.90
27667;DHT22;15074;50.940;5.282;2023-08-17T02:15:29;20.10;99.90
27667;DHT22;15074;50.940;5.282;2023-08-17T02:17:54;20.10;99.90
27667;DHT22;15074;50.940;5.282;2023-08-17T02:20:20;20.20;99.90
27667;DHT22;15074;50.940;5.282;2023-08-17T02:22:46;20.10;99.90
27667;DHT22;15074;50.940;5.282;2023-08-17T02:25:11;20.10;99.90
27667;DHT22;15074;50.940;5.282;2023-08-17T02:27:37;20.00;99.90
27667;DHT22;15074;50.940;5.282;2023-08-17T02:30:06;20.10;99.90
27667;DHT22;15074;50.940;5.282;2023-08-17T02:32:32;20.10;99.90
27667;DHT22;15074;50.940;5.282;2023-08-17T02:34:57;20.10;99.90
27667;DHT22;15074;50.940;5.282;2023-08-17T02:37:23;20.10;99.90
27667;DHT22;15074;50.940;5.282;2023-08-17T02:39:49;20.20;99.90
27667;DHT22;15074;50.940;5.282;2023-08-17T02:42:14;20.20;99.90
27667;DHT22;15074;50.940;5.282;2023-08-17T02:44:40;20.20;99.90
27667;DHT22;15074;50.940;5.282;2023-08-17T02:47:06;20.20;99.90
27667;DHT22;15074;50.940;5.282;2023-08-17T02:49:31;20.10;99.90
27667;DHT22;15074;50.940;5.282;2023-08-17T02:51:57;20.00;99.90
27667;DHT22;15074;50.940;5.282;2023-08-17T02:54:22;19.90;99.90
27667;DHT22;15074;50.940;5.282;2023-08-17T02:56:48;20.00;99.90
27667;DHT22;15074;50.940;5.282;2023-08-17T02:59:14;20.00;99.90
27667;DHT22;15074;50.940;5.282;2023-08-17T03:01:39;19.90;99.90
27667;DHT22;15074;50.940;5.282;2023-08-17T03:04:05;19.90;99.90
27667;DHT22;15074;50.940;5.282;2023-08-17T03:06:31;19.90;99.90
27667;DHT22;15074;50.940;5.282;2023-08-17T03:08:56;19.90;99.90
27667;DHT22;15074;50.940;5.282;2023-08-17T03:11:22;19.90;99.90
27667;DHT22;15074;50.940;5.282;2023-08-17T03:13:47;19.90;99.90
27667;DHT22;15074;50.940;5.282;2023-08-17T03:16:14;19.90;99.90
27667;DHT22;15074;50.940;5.282;2023-08-17T03:18:41;19.80;99.90
27667;DHT22;15074;50.940;5.282;2023-08-17T03:21:06;19.70;99.90
27667;DHT22;15074;50.940;5.282;2023-08-17T03:23:32;19.70;99.90
27667;DHT22;15074;50.940;5.282;2023-08-17T03:25:58;19.70;99.90
27667;DHT22;15074;50.940;5.282;2023-08-17T03:28:24;19.70;99.90
27667;DHT22;15074;50.940;5.282;2023-08-17T03:30:54;19.70;99.90
27667;DHT22;15074;50.940;5.282;2023-08-17T03:33:20;19.60;99.90
27667;DHT22;15074;50.940;5.282;2023-08-17T03:35:46;19.60;99.90
27667;DHT22;15074;50.940;5.282;2023-08-17T03:38:12;19.60;99.90
27667;DHT22;15074;50.940;5.282;2023-08-17T03:40:37;19.60;99.90
27667;DHT22;15074;50.940;5.282;2023-08-17T03:43:03;19.60;99.90
27667;DHT22;15074;50.940;5.282;2023-08-17T03:45:29;19.40;99.90
27667;DHT22;15074;50.940;5.282;2023-08-17T03:47:56;19.40;99.90
27667;DHT22;15074;50.940;5.282;2023-08-17T03:50:21;19.50;99.90
27667;DHT22;15074;50.940;5.282;2023-08-17T03:52:47;19.50;99.90
27667;DHT22;15074;50.940;5.282;2023-08-17T03:55:13;19.60;99.90
27667;DHT22;15074;50.940;5.282;2023-08-17T03:57:38;19.50;99.90
27667;DHT22;15074;50.940;5.282;2023-08-17T04:00:05;19.50;99.90
27667;DHT22;15074;50.940;5.282;2023-08-17T04:02:31;19.60;99.90
27667;DHT22;15074;50.940;5.282;2023-08-17T04:04:57;19.60;99.90
27667;DHT22;15074;50.940;5.282;2023-08-17T04:07:23;19.50;99.90
27667;DHT22;15074;50.940;5.282;2023-08-17T04:09:48;19.50;99.90
27667;DHT22;15074;50.940;5.282;2023-08-17T04:12:15;19.60;99.90
27667;DHT22;15074;50.940;5.282;2023-08-17T04:14:40;19.70;99.90
27667;DHT22;15074;50.940;5.282;2023-08-17T04:17:06;19.50;99.90
27667;DHT22;15074;50.940;5.282;2023-08-17T04:19:32;19.40;99.90
27667;DHT22;15074;50.940;5.282;2023-08-17T04:21:58;19.40;99.90
27667;DHT22;15074;50.940;5.282;2023-08-17T04:24:23;19.30;99.90
27667;DHT22;15074;50.940;5.282;2023-08-17T04:26:49;19.20;99.90
27667;DHT22;15074;50.940;5.282;2023-08-17T04:29:15;19.30;99.90
27667;DHT22;15074;50.940;5.282;2023-08-17T04:31:41;19.40;99.90
27667;DHT22;15074;50.940;5.282;2023-08-17T04:34:06;19.50;99.90
27667;DHT22;15074;50.940;5.282;2023-08-17T04:36:32;19.40;99.90
27667;DHT22;15074;50.940;5.282;2023-08-17T04:38:58;19.20;99.90
27667;DHT22;15074;50.940;5.282;2023-08-17T04:41:23;19.30;99.90
27667;DHT22;15074;50.940;5.282;2023-08-17T04:43:49;19.30;99.90
27667;DHT22;15074;50.940;5.282;2023-08-17T04:46:15;19.30;99.90
27667;DHT22;15074;50.940;5.282;2023-08-17T04:48:40;19.20;99.90
27667;DHT22;15074;50.940;5.282;2023-08-17T04:51:06;19.00;99.90
27667;DHT22;15074;50.940;5.282;2023-08-17T04:53:32;19.10;99.90
27667;DHT22;15074;50.940;5.282;2023-08-17T04:55:59;19.20;99.90
27667;DHT22;15074;50.940;5.282;2023-08-17T04:58:24;19.20;99.90
27667;DHT22;15074;50.940;5.282;2023-08-17T05:00:50;19.30;99.90
27667;DHT22;15074;50.940;5.282;2023-08-17T05:03:16;19.30;99.90
27667;DHT22;15074;50.940;5.282;2023-08-17T05:05:42;19.40;99.90
27667;DHT22;15074;50.940;5.282;2023-08-17T05:08:07;19.40;99.90
27667;DHT22;15074;50.940;5.282;2023-08-17T05:10:33;19.40;99.90
27667;DHT22;15074;50.940;5.282;2023-08-17T05:12:59;19.40;99.90
27667;DHT22;15074;50.940;5.282;2023-08-17T05:15:25;19.40;99.90
27667;DHT22;15074;50.940;5.282;2023-08-17T05:17:50;19.40;99.90
27667;DHT22;15074;50.940;5.282;2023-08-17T05:20:16;19.50;99.90
27667;DHT22;15074;50.940;5.282;2023-08-17T05:22:42;19.50;99.90
27667;DHT22;15074;50.940;5.282;2023-08-17T05:25:08;19.50;99.90
27667;DHT22;15074;50.940;5.282;2023-08-17T05:27:33;19.30;99.90
27667;DHT22;15074;50.940;5.282;2023-08-17T05:29:59;19.40;99.90
27667;DHT22;15074;50.940;5.282;2023-08-17T05:32:25;19.40;99.90
27667;DHT22;15074;50.940;5.282;2023-08-17T05:34:50;19.30;99.90
27667;DHT22;15074;50.940;5.282;2023-08-17T05:37:16;19.20;99.90
27667;DHT22;15074;50.940;5.282;2023-08-17T05:39:42;19.20;99.90
27667;DHT22;15074;50.940;5.282;2023-08-17T05:42:07;19.10;99.90
27667;DHT22;15074;50.940;5.282;2023-08-17T05:44:35;18.90;99.90
27667;DHT22;15074;50.940;5.282;2023-08-17T05:47:01;18.80;99.90
27667;DHT22;15074;50.940;5.282;2023-08-17T05:49:26;18.70;99.90
27667;DHT22;15074;50.940;5.282;2023-08-17T05:51:52;18.70;99.90
27667;DHT22;15074;50.940;5.282;2023-08-17T05:54:17;18.70;99.90
27667;DHT22;15074;50.940;5.282;2023-08-17T05:56:43;18.60;99.90
27667;DHT22;15074;50.940;5.282;2023-08-17T05:59:12;18.60;99.90
27667;DHT22;15074;50.940;5.282;2023-08-17T06:01:37;18.60;99.90
27667;DHT22;15074;50.940;5.282;2023-08-17T06:04:04;18.50;99.90
27667;DHT22;15074;50.940;5.282;2023-08-17T06:06:29;18.50;99.90
27667;DHT22;15074;50.940;5.282;2023-08-17T06:08:55;18.60;99.90
27667;DHT22;15074;50.940;5.282;2023-08-17T06:11:21;18.60;99.90
27667;DHT22;15074;50.940;5.282;2023-08-17T06:13:46;18.80;99.90
27667;DHT22;15074;50.940;5.282;2023-08-17T06:16:12;18.90;99.90
27667;DHT22;15074;50.940;5.282;2023-08-17T06:18:39;19.10;99.90
27667;DHT22;15074;50.940;5.282;2023-08-17T06:21:04;19.10;99.90
27667;DHT22;15074;50.940;5.282;2023-08-17T06:23:30;19.20;99.90
27667;DHT22;15074;50.940;5.282;2023-08-17T06:25:57;19.10;99.90
27667;DHT22;15074;50.940;5.282;2023-08-17T06:28:24;19.00;99.90
27667;DHT22;15074;50.940;5.282;2023-08-17T06:30:56;19.00;99.90
27667;DHT22;15074;50.940;5.282;2023-08-17T06:33:22;19.10;99.90
27667;DHT22;15074;50.940;5.282;2023-08-17T06:35:51;19.10;99.90
27667;DHT22;15074;50.940;5.282;2023-08-17T06:38:17;19.30;99.90
27667;DHT22;15074;50.940;5.282;2023-08-17T06:40:43;19.30;99.90
27667;DHT22;15074;50.940;5.282;2023-08-17T06:43:09;19.40;99.90
27667;DHT22;15074;50.940;5.282;2023-08-17T06:45:35;19.30;99.90
27667;DHT22;15074;50.940;5.282;2023-08-17T06:48:01;19.40;99.90
27667;DHT22;15074;50.940;5.282;2023-08-17T06:50:26;19.50;99.90
27667;DHT22;15074;50.940;5.282;2023-08-17T06:52:53;19.80;99.90
27667;DHT22;15074;50.940;5.282;2023-08-17T06:55:19;19.90;99.90
27667;DHT22;15074;50.940;5.282;2023-08-17T06:57:45;19.90;99.90
27667;DHT22;15074;50.940;5.282;2023-08-17T07:00:11;19.90;99.90
27667;DHT22;15074;50.940;5.282;2023-08-17T07:02:37;20.10;99.90
27667;DHT22;15074;50.940;5.282;2023-08-17T07:05:03;20.10;99.90
27667;DHT22;15074;50.940;5.282;2023-08-17T07:07:30;20.10;99.90
27667;DHT22;15074;50.940;5.282;2023-08-17T07:09:57;20.20;99.90
27667;DHT22;15074;50.940;5.282;2023-08-17T07:12:23;19.70;99.90
27667;DHT22;15074;50.940;5.282;2023-08-17T07:14:53;19.60;99.90
27667;DHT22;15074;50.940;5.282;2023-08-17T07:17:18;19.30;99.90
27667;DHT22;15074;50.940;5.282;2023-08-17T07:19:44;19.40;99.90
27667;DHT22;15074;50.940;5.282;2023-08-17T07:22:10;19.50;99.90
27667;DHT22;15074;50.940;5.282;2023-08-17T07:24:36;19.70;99.90
27667;DHT22;15074;50.940;5.282;2023-08-17T07:27:01;19.80;99.90
27667;DHT22;15074;50.940;5.282;2023-08-17T07:29:27;19.80;99.90
27667;DHT22;15074;50.940;5.282;2023-08-17T07:31:52;19.60;99.90
27667;DHT22;15074;50.940;5.282;2023-08-17T07:34:19;19.60;99.90
27667;DHT22;15074;50.940;5.282;2023-08-17T07:36:45;19.60;99.90
27667;DHT22;15074;50.940;5.282;2023-08-17T07:39:11;19.70;99.90
27667;DHT22;15074;50.940;5.282;2023-08-17T07:41:37;19.80;99.90
27667;DHT22;15074;50.940;5.282;2023-08-17T07:44:02;20.00;99.90
27667;DHT22;15074;50.940;5.282;2023-08-17T07:46:28;20.10;99.90
27667;DHT22;15074;50.940;5.282;2023-08-17T07:48:54;20.10;99.90
27667;DHT22;15074;50.940;5.282;2023-08-17T07:51:19;20.30;99.90
27667;DHT22;15074;50.940;5.282;2023-08-17T07:53:45;20.30;99.90
27667;DHT22;15074;50.940;5.282;2023-08-17T07:56:11;20.30;99.90
27667;DHT22;15074;50.940;5.282;2023-08-17T07:58:36;20.30;99.90
27667;DHT22;15074;50.940;5.282;2023-08-17T08:01:02;20.20;99.90
27667;DHT22;15074;50.940;5.282;2023-08-17T08:03:28;20.10;99.90
27667;DHT22;15074;50.940;5.282;2023-08-17T08:05:54;20.10;99.90
27667;DHT22;15074;50.940;5.282;2023-08-17T08:08:19;20.20;99.90
27667;DHT22;15074;50.940;5.282;2023-08-17T08:10:45;20.40;99.90
27667;DHT22;15074;50.940;5.282;2023-08-17T08:13:11;20.40;99.90
27667;DHT22;15074;50.940;5.282;2023-08-17T08:15:37;20.40;99.90
27667;DHT22;15074;50.940;5.282;2023-08-17T08:18:02;20.50;99.90
27667;DHT22;15074;50.940;5.282;2023-08-17T08:20:28;20.70;99.90
27667;DHT22;15074;50.940;5.282;2023-08-17T08:22:54;20.50;99.90
27667;DHT22;15074;50.940;5.282;2023-08-17T08:25:20;20.60;99.90
27667;DHT22;15074;50.940;5.282;2023-08-17T08:27:45;21.00;99.90
27667;DHT22;15074;50.940;5.282;2023-08-17T08:30:11;21.30;99.90
27667;DHT22;15074;50.940;5.282;2023-08-17T08:32:37;21.50;99.90
27667;DHT22;15074;50.940;5.282;2023-08-17T08:35:03;21.70;99.90
27667;DHT22;15074;50.940;5.282;2023-08-17T08:37:28;21.70;99.90
27667;DHT22;15074;50.940;5.282;2023-08-17T08:39:55;21.80;99.90
27667;DHT22;15074;50.940;5.282;2023-08-17T08:42:22;22.00;99.90
27667;DHT22;15074;50.940;5.282;2023-08-17T08:44:49;22.20;99.90
27667;DHT22;15074;50.940;5.282;2023-08-17T08:47:19;22.20;99.90
27667;DHT22;15074;50.940;5.282;2023-08-17T08:50:00;22.60;99.90
27667;DHT22;15074;50.940;5.282;2023-08-17T08:52:33;22.20;99.90
27667;DHT22;15074;50.940;5.282;2023-08-17T08:55:10;22.00;99.90
27667;DHT22;15074;50.940;5.282;2023-08-17T08:57:37;22.10;99.90
27667;DHT22;15074;50.940;5.282;2023-08-17T09:00:06;22.20;99.90
27667;DHT22;15074;50.940;5.282;2023-08-17T09:02:33;22.40;99.90
27667;DHT22;15074;50.940;5.282;2023-08-17T09:04:59;22.30;99.90
27667;DHT22;15074;50.940;5.282;2023-08-17T09:07:28;22.20;99.90
27667;DHT22;15074;50.940;5.282;2023-08-17T09:09:55;22.10;99.90
27667;DHT22;15074;50.940;5.282;2023-08-17T09:12:22;22.10;99.90
27667;DHT22;15074;50.940;5.282;2023-08-17T09:14:47;22.30;99.90
27667;DHT22;15074;50.940;5.282;2023-08-17T09:17:13;22.40;99.90
27667;DHT22;15074;50.940;5.282;2023-08-17T09:19:39;22.50;99.90
27667;DHT22;15074;50.940;5.282;2023-08-17T09:22:04;22.10;99.90
27667;DHT22;15074;50.940;5.282;2023-08-17T09:24:37;22.00;99.90
27667;DHT22;15074;50.940;5.282;2023-08-17T09:27:03;22.00;99.90
27667;DHT22;15074;50.940;5.282;2023-08-17T09:29:30;21.80;99.90
27667;DHT22;15074;50.940;5.282;2023-08-17T09:32:05;22.00;99.90
27667;DHT22;15074;50.940;5.282;2023-08-17T09:34:32;22.10;99.90
27667;DHT22;15074;50.940;5.282;2023-08-17T09:37:04;22.10;99.90
27667;DHT22;15074;50.940;5.282;2023-08-17T09:39:31;22.40;99.90
27667;DHT22;15074;50.940;5.282;2023-08-17T09:41:57;22.50;99.90
27667;DHT22;15074;50.940;5.282;2023-08-17T09:44:22;22.80;99.90
27667;DHT22;15074;50.940;5.282;2023-08-17T09:46:48;22.50;99.90
27667;DHT22;15074;50.940;5.282;2023-08-17T09:49:14;22.30;99.90
27667;DHT22;15074;50.940;5.282;2023-08-17T09:51:43;22.20;99.90
27667;DHT22;15074;50.940;5.282;2023-08-17T09:54:21;22.10;99.90
27667;DHT22;15074;50.940;5.282;2023-08-17T09:56:52;22.40;99.90
27667;DHT22;15074;50.940;5.282;2023-08-17T09:59:18;22.70;99.90
27667;DHT22;15074;50.940;5.282;2023-08-17T10:01:47;22.50;99.90
27667;DHT22;15074;50.940;5.282;2023-08-17T10:04:15;22.40;99.90
27667;DHT22;15074;50.940;5.282;2023-08-17T10:06:41;22.20;99.90
27667;DHT22;15074;50.940;5.282;2023-08-17T10:09:09;22.20;99.90
27667;DHT22;15074;50.940;5.282;2023-08-17T10:11:38;22.30;99.90
27667;DHT22;15074;50.940;5.282;2023-08-17T10:14:11;21.90;99.90
27667;DHT22;15074;50.940;5.282;2023-08-17T10:16:45;21.70;99.90
27667;DHT22;15074;50.940;5.282;2023-08-17T10:22:12;22.00;99.90
27667;DHT22;15074;50.940;5.282;2023-08-17T10:24:40;22.30;99.90
27667;DHT22;15074;50.940;5.282;2023-08-17T10:27:07;22.40;99.90
27667;DHT22;15074;50.940;5.282;2023-08-17T10:29:35;22.40;99.90
27667;DHT22;15074;50.940;5.282;2023-08-17T10:32:02;22.50;99.90
27667;DHT22;15074;50.940;5.282;2023-08-17T10:34:28;22.50;99.90
27667;DHT22;15074;50.940;5.282;2023-08-17T10:36:55;22.70;99.90
27667;DHT22;15074;50.940;5.282;2023-08-17T10:39:28;22.90;99.90
27667;DHT22;15074;50.940;5.282;2023-08-17T10:41:54;23.50;99.90
27667;DHT22;15074;50.940;5.282;2023-08-17T10:44:46;23.20;99.90
27667;DHT22;15074;50.940;5.282;2023-08-17T10:49:44;23.60;99.90
27667;DHT22;15074;50.940;5.282;2023-08-17T10:52:11;23.30;99.90
27667;DHT22;15074;50.940;5.282;2023-08-17T10:54:41;22.50;99.90
27667;DHT22;15074;50.940;5.282;2023-08-17T10:57:31;22.30;99.90
27667;DHT22;15074;50.940;5.282;2023-08-17T11:00:19;22.30;99.90
27667;DHT22;15074;50.940;5.282;2023-08-17T11:02:56;22.70;99.90
27667;DHT22;15074;50.940;5.282;2023-08-17T11:05:37;23.10;99.90
27667;DHT22;15074;50.940;5.282;2023-08-17T11:08:04;23.40;99.90
27667;DHT22;15074;50.940;5.282;2023-08-17T11:10:30;23.40;99.90
27667;DHT22;15074;50.940;5.282;2023-08-17T11:12:57;23.00;99.90
27667;DHT22;15074;50.940;5.282;2023-08-17T11:15:35;23.10;99.90
27667;DHT22;15074;50.940;5.282;2023-08-17T11:18:04;23.60;99.90
27667;DHT22;15074;50.940;5.282;2023-08-17T11:20:30;23.60;99.90
27667;DHT22;15074;50.940;5.282;2023-08-17T11:22:57;24.00;99.90
27667;DHT22;15074;50.940;5.282;2023-08-17T11:25:25;23.90;99.90
27667;DHT22;15074;50.940;5.282;2023-08-17T11:27:52;23.80;99.90
27667;DHT22;15074;50.940;5.282;2023-08-17T11:30:18;23.70;99.90
27667;DHT22;15074;50.940;5.282;2023-08-17T11:32:44;23.40;99.90
27667;DHT22;15074;50.940;5.282;2023-08-17T11:35:10;23.50;99.90
27667;DHT22;15074;50.940;5.282;2023-08-17T11:37:36;23.50;99.90
27667;DHT22;15074;50.940;5.282;2023-08-17T11:40:02;23.70;99.90
27667;DHT22;15074;50.940;5.282;2023-08-17T11:42:29;23.80;99.90
27667;DHT22;15074;50.940;5.282;2023-08-17T11:44:56;23.90;99.90
27667;DHT22;15074;50.940;5.282;2023-08-17T11:47:21;24.10;99.90
27667;DHT22;15074;50.940;5.282;2023-08-17T11:49:48;23.80;99.90
27667;DHT22;15074;50.940;5.282;2023-08-17T11:52:15;23.70;99.90
27667;DHT22;15074;50.940;5.282;2023-08-17T11:54:41;24.10;99.90
27667;DHT22;15074;50.940;5.282;2023-08-17T11:57:07;24.20;99.90
27667;DHT22;15074;50.940;5.282;2023-08-17T11:59:33;24.40;99.90
27667;DHT22;15074;50.940;5.282;2023-08-17T12:02:00;24.30;99.90
27667;DHT22;15074;50.940;5.282;2023-08-17T12:04:26;24.30;99.90
27667;DHT22;15074;50.940;5.282;2023-08-17T12:06:52;24.20;99.90
27667;DHT22;15074;50.940;5.282;2023-08-17T12:09:18;23.70;99.90
27667;DHT22;15074;50.940;5.282;2023-08-17T12:11:47;23.60;99.90
27667;DHT22;15074;50.940;5.282;2023-08-17T12:14:12;23.60;99.90
27667;DHT22;15074;50.940;5.282;2023-08-17T12:16:48;23.60;99.90
27667;DHT22;15074;50.940;5.282;2023-08-17T12:19:14;23.80;99.90
27667;DHT22;15074;50.940;5.282;2023-08-17T12:21:43;23.30;99.90
27667;DHT22;15074;50.940;5.282;2023-08-17T12:24:09;23.00;99.90
27667;DHT22;15074;50.940;5.282;2023-08-17T12:26:41;22.90;99.90
27667;DHT22;15074;50.940;5.282;2023-08-17T12:29:07;22.80;99.90
27667;DHT22;15074;50.940;5.282;2023-08-17T12:31:34;23.20;99.90
27667;DHT22;15074;50.940;5.282;2023-08-17T12:34:00;23.50;99.90
27667;DHT22;15074;50.940;5.282;2023-08-17T12:36:25;23.20;99.90
27667;DHT22;15074;50.940;5.282;2023-08-17T12:38:51;23.30;99.90
27667;DHT22;15074;50.940;5.282;2023-08-17T12:41:17;23.60;99.90
27667;DHT22;15074;50.940;5.282;2023-08-17T12:43:45;23.80;99.90
27667;DHT22;15074;50.940;5.282;2023-08-17T12:46:11;24.20;99.90
27667;DHT22;15074;50.940;5.282;2023-08-17T12:48:37;24.00;99.90
27667;DHT22;15074;50.940;5.282;2023-08-17T12:51:03;24.20;99.90
27667;DHT22;15074;50.940;5.282;2023-08-17T12:53:29;24.60;99.90
27667;DHT22;15074;50.940;5.282;2023-08-17T12:55:55;24.70;99.90
27667;DHT22;15074;50.940;5.282;2023-08-17T12:58:21;25.00;99.90
27667;DHT22;15074;50.940;5.282;2023-08-17T13:00:46;24.90;99.90
27667;DHT22;15074;50.940;5.282;2023-08-17T13:03:16;25.00;99.90
27667;DHT22;15074;50.940;5.282;2023-08-17T13:05:42;23.70;99.90
27667;DHT22;15074;50.940;5.282;2023-08-17T13:08:07;23.80;99.90
27667;DHT22;15074;50.940;5.282;2023-08-17T13:10:34;24.20;99.90
27667;DHT22;15074;50.940;5.282;2023-08-17T13:13:00;24.50;99.90
27667;DHT22;15074;50.940;5.282;2023-08-17T13:15:26;24.80;99.90
27667;DHT22;15074;50.940;5.282;2023-08-17T13:17:51;24.50;99.90
27667;DHT22;15074;50.940;5.282;2023-08-17T13:20:17;24.70;99.90
27667;DHT22;15074;50.940;5.282;2023-08-17T13:22:43;24.80;99.90
27667;DHT22;15074;50.940;5.282;2023-08-17T13:25:08;25.50;99.90
27667;DHT22;15074;50.940;5.282;2023-08-17T13:27:34;25.60;99.90
27667;DHT22;15074;50.940;5.282;2023-08-17T13:30:00;25.70;99.90
27667;DHT22;15074;50.940;5.282;2023-08-17T13:32:27;25.90;99.90
27667;DHT22;15074;50.940;5.282;2023-08-17T13:34:53;25.90;99.90
27667;DHT22;15074;50.940;5.282;2023-08-17T13:37:18;26.20;99.90
27667;DHT22;15074;50.940;5.282;2023-08-17T13:39:45;26.40;99.90
27667;DHT22;15074;50.940;5.282;2023-08-17T13:42:11;26.20;99.90
27667;DHT22;15074;50.940;5.282;2023-08-17T13:44:37;26.00;99.90
27667;DHT22;15074;50.940;5.282;2023-08-17T13:47:03;25.10;99.90
27667;DHT22;15074;50.940;5.282;2023-08-17T13:49:29;24.80;99.90
27667;DHT22;15074;50.940;5.282;2023-08-17T13:51:55;24.90;99.90
27667;DHT22;15074;50.940;5.282;2023-08-17T13:54:22;24.90;99.90
27667;DHT22;15074;50.940;5.282;2023-08-17T13:56:48;24.40;99.90
27667;DHT22;15074;50.940;5.282;2023-08-17T13:59:14;23.80;99.90
27667;DHT22;15074;50.940;5.282;2023-08-17T14:01:39;24.00;99.90
27667;DHT22;15074;50.940;5.282;2023-08-17T14:04:06;24.10;99.90
27667;DHT22;15074;50.940;5.282;2023-08-17T14:06:38;24.00;99.90
27667;DHT22;15074;50.940;5.282;2023-08-17T14:09:04;24.00;99.90
27667;DHT22;15074;50.940;5.282;2023-08-17T14:11:30;24.20;99.90
27667;DHT22;15074;50.940;5.282;2023-08-17T14:13:56;24.20;99.90
27667;DHT22;15074;50.940;5.282;2023-08-17T14:16:22;24.10;99.90
27667;DHT22;15074;50.940;5.282;2023-08-17T14:18:47;23.90;99.90
27667;DHT22;15074;50.940;5.282;2023-08-17T14:21:13;23.80;99.90
27667;DHT22;15074;50.940;5.282;2023-08-17T14:23:39;23.90;99.90
27667;DHT22;15074;50.940;5.282;2023-08-17T14:26:05;23.60;99.90
27667;DHT22;15074;50.940;5.282;2023-08-17T14:28:31;23.80;99.90
27667;DHT22;15074;50.940;5.282;2023-08-17T14:30:56;24.00;99.90
27667;DHT22;15074;50.940;5.282;2023-08-17T14:33:22;23.70;99.90
27667;DHT22;15074;50.940;5.282;2023-08-17T14:35:48;23.40;99.90
27667;DHT22;15074;50.940;5.282;2023-08-17T14:38:14;23.50;99.90
27667;DHT22;15074;50.940;5.282;2023-08-17T14:40:44;23.80;99.90
27667;DHT22;15074;50.940;5.282;2023-08-17T14:43:11;24.40;99.90
27667;DHT22;15074;50.940;5.282;2023-08-17T14:45:42;24.50;99.90
27667;DHT22;15074;50.940;5.282;2023-08-17T14:48:08;24.70;99.90
27667;DHT22;15074;50.940;5.282;2023-08-17T14:50:34;24.70;99.90
27667;DHT22;15074;50.940;5.282;2023-08-17T14:53:00;24.80;99.90
27667;DHT22;15074;50.940;5.282;2023-08-17T14:55:30;25.00;99.90
27667;DHT22;15074;50.940;5.282;2023-08-17T14:57:56;25.20;99.90
27667;DHT22;15074;50.940;5.282;2023-08-17T15:00:23;25.10;99.90
27667;DHT22;15074;50.940;5.282;2023-08-17T15:02:49;24.90;99.90
27667;DHT22;15074;50.940;5.282;2023-08-17T15:05:15;24.90;99.90
27667;DHT22;15074;50.940;5.282;2023-08-17T15:07:41;24.50;99.90
27667;DHT22;15074;50.940;5.282;2023-08-17T15:10:07;24.60;99.90
27667;DHT22;15074;50.940;5.282;2023-08-17T15:12:32;24.60;99.90
27667;DHT22;15074;50.940;5.282;2023-08-17T15:14:58;24.50;99.90
27667;DHT22;15074;50.940;5.282;2023-08-17T15:17:24;24.50;99.90
27667;DHT22;15074;50.940;5.282;2023-08-17T15:19:49;24.60;99.90
27667;DHT22;15074;50.940;5.282;2023-08-17T15:22:15;24.50;99.90
27667;DHT22;15074;50.940;5.282;2023-08-17T15:24:42;24.50;99.90
27667;DHT22;15074;50.940;5.282;2023-08-17T15:27:09;24.30;99.90
27667;DHT22;15074;50.940;5.282;2023-08-17T15:29:34;24.40;99.90
27667;DHT22;15074;50.940;5.282;2023-08-17T15:32:00;24.20;99.90
27667;DHT22;15074;50.940;5.282;2023-08-17T15:34:26;24.00;99.90